createdAt,value
2018-10-18T00:01:40.691Z,12.69
2018-10-18T00:04:07.596Z,12.69
2018-10-18T00:06:34.506Z,12.63
2018-10-18T00:09:01.398Z,12.56
2018-10-18T00:11:28.296Z,12.56
2018-10-18T00:13:55.235Z,12.63
2018-10-18T00:16:22.072Z,12.50
2018-10-18T00:18:48.994Z,12.56
2018-10-18T00:21:15.873Z,12.50
2018-10-18T00:23:42.854Z,12.56
2018-10-18T00:26:09.809Z,12.50
2018-10-18T00:28:36.661Z,12.44
2018-10-18T00:31:03.600Z,12.44
2018-10-18T00:33:30.485Z,12.50
2018-10-18T00:35:57.501Z,12.44
2018-10-18T00:38:24.402Z,12.44
2018-10-18T00:40:51.343Z,12.44
2018-10-18T00:43:18.232Z,12.37
2018-10-18T00:45:45.133Z,12.37
2018-10-18T00:48:12.115Z,12.37
2018-10-18T00:50:39.010Z,12.44
2018-10-18T00:53:05.904Z,12.44
2018-10-18T00:55:32.789Z,12.37
2018-10-18T00:57:59.682Z,12.44
2018-10-18T01:00:26.562Z,12.37
2018-10-18T01:02:53.531Z,12.37
2018-10-18T01:05:20.460Z,12.37
2018-10-18T01:07:47.372Z,12.31
2018-10-18T01:10:14.288Z,12.31
2018-10-18T01:12:41.279Z,12.25
2018-10-18T01:15:08.079Z,12.31
2018-10-18T01:17:34.978Z,12.25
2018-10-18T01:20:01.957Z,12.31
2018-10-18T01:22:28.835Z,12.25
2018-10-18T01:24:55.727Z,12.25
2018-10-18T01:27:22.639Z,12.25
2018-10-18T01:29:49.626Z,12.31
2018-10-18T01:32:16.716Z,12.25
2018-10-18T01:34:43.531Z,12.19
2018-10-18T01:37:10.423Z,12.19
2018-10-18T01:39:37.333Z,12.19
2018-10-18T01:42:05.084Z,12.19
2018-10-18T01:44:31.932Z,12.25
2018-10-18T01:46:58.839Z,12.13
2018-10-18T01:49:25.720Z,12.13
2018-10-18T01:51:52.612Z,12.13
2018-10-18T01:54:19.480Z,12.13
2018-10-18T01:56:46.360Z,12.13
2018-10-18T01:59:13.264Z,12.13
2018-10-18T02:01:40.172Z,12.00
2018-10-18T02:04:07.052Z,12.06
2018-10-18T02:06:33.952Z,12.00
2018-10-18T02:09:00.837Z,12.00
2018-10-18T02:11:27.712Z,12.00
2018-10-18T02:13:54.594Z,11.94
2018-10-18T02:16:21.495Z,12.00
2018-10-18T02:18:48.390Z,11.94
2018-10-18T02:21:15.333Z,12.06
2018-10-18T02:23:42.235Z,12.06
2018-10-18T02:26:09.815Z,11.94
2018-10-18T02:28:36.728Z,11.94
2018-10-18T02:31:04.021Z,12.06
2018-10-18T02:33:30.919Z,12.00
2018-10-18T02:35:57.932Z,11.88
2018-10-18T02:38:24.769Z,11.94
2018-10-18T02:40:51.644Z,11.94
2018-10-18T02:43:18.549Z,11.88
2018-10-18T02:45:45.426Z,11.81
2018-10-18T02:48:12.376Z,11.81
2018-10-18T02:50:39.251Z,11.88
2018-10-18T02:53:06.126Z,11.81
2018-10-18T02:55:33.046Z,11.75
2018-10-18T02:57:59.931Z,11.75
2018-10-18T03:00:26.837Z,11.75
2018-10-18T03:02:53.871Z,11.75
2018-10-18T03:05:20.771Z,11.75
2018-10-18T03:07:47.651Z,11.75
2018-10-18T03:10:14.559Z,11.69
2018-10-18T03:12:41.429Z,11.69
2018-10-18T03:15:09.331Z,11.75
2018-10-18T03:17:36.293Z,11.75
2018-10-18T03:20:03.251Z,11.75
2018-10-18T03:22:30.132Z,11.69
2018-10-18T03:24:57.037Z,11.69
2018-10-18T03:27:23.921Z,11.69
2018-10-18T03:29:50.846Z,11.63
2018-10-18T03:32:17.826Z,11.63
2018-10-18T03:34:44.742Z,11.69
2018-10-18T03:37:11.671Z,11.63
2018-10-18T03:39:38.558Z,11.69
2018-10-18T03:42:05.540Z,11.63
2018-10-18T03:44:32.435Z,11.63
2018-10-18T03:46:59.337Z,11.63
2018-10-18T03:49:26.221Z,11.63
2018-10-18T03:51:53.130Z,11.63
2018-10-18T03:54:20.136Z,11.63
2018-10-18T03:56:47.301Z,11.63
2018-10-18T03:59:14.173Z,11.69
2018-10-18T04:01:41.089Z,11.63
2018-10-18T04:04:07.987Z,11.63
2018-10-18T04:06:34.913Z,11.56
2018-10-18T04:09:02.044Z,11.50
2018-10-18T04:11:28.961Z,11.56
2018-10-18T04:13:55.908Z,11.56
2018-10-18T04:16:22.799Z,11.56
2018-10-18T04:18:49.814Z,11.56
2018-10-18T04:21:16.797Z,11.56
2018-10-18T04:23:43.698Z,11.50
2018-10-18T04:26:10.649Z,11.44
2018-10-18T04:28:37.563Z,11.44
2018-10-18T04:31:04.489Z,11.44
2018-10-18T04:33:31.665Z,11.44
2018-10-18T04:35:58.574Z,11.44
2018-10-18T04:38:25.431Z,11.38
2018-10-18T04:40:52.332Z,11.38
2018-10-18T04:43:19.268Z,11.38
2018-10-18T04:45:46.143Z,11.31
2018-10-18T04:48:13.482Z,11.31
2018-10-18T04:50:40.294Z,11.31
2018-10-18T04:53:07.191Z,11.38
2018-10-18T04:55:34.081Z,11.44
2018-10-18T04:58:00.999Z,11.38
2018-10-18T05:00:27.975Z,11.38
2018-10-18T05:02:54.909Z,11.38
2018-10-18T05:05:33.393Z,11.38
2018-10-18T05:08:00.317Z,11.31
2018-10-18T05:10:27.196Z,11.31
2018-10-18T05:12:54.220Z,11.31
2018-10-18T05:15:21.144Z,11.31
2018-10-18T05:17:48.043Z,11.31
2018-10-18T05:20:14.918Z,11.31
2018-10-18T05:22:41.846Z,11.31
2018-10-18T05:25:09.136Z,11.31
2018-10-18T05:27:35.927Z,11.25
2018-10-18T05:30:02.836Z,11.31
2018-10-18T05:32:29.754Z,11.38
2018-10-18T05:34:56.634Z,11.25
2018-10-18T05:37:23.857Z,11.25
2018-10-18T05:39:50.742Z,11.25
2018-10-18T05:42:17.761Z,11.31
2018-10-18T05:44:44.679Z,11.25
2018-10-18T05:47:11.666Z,11.25
2018-10-18T05:49:38.522Z,11.12
2018-10-18T05:52:05.619Z,11.12
2018-10-18T05:54:32.485Z,11.12
2018-10-18T05:56:59.433Z,11.19
2018-10-18T05:59:26.365Z,11.19
2018-10-18T06:01:53.280Z,11.25
2018-10-18T06:04:20.176Z,11.19
2018-10-18T06:06:47.113Z,11.19
2018-10-18T06:09:24.913Z,11.25
2018-10-18T06:11:51.927Z,11.44
2018-10-18T06:14:18.859Z,11.38
2018-10-18T06:16:45.765Z,11.44
2018-10-18T06:19:12.739Z,11.44
2018-10-18T06:21:39.593Z,11.44
2018-10-18T06:24:06.512Z,11.38
2018-10-18T06:26:33.443Z,11.44
2018-10-18T06:29:00.429Z,11.63
2018-10-18T06:31:27.856Z,11.63
2018-10-18T06:33:54.795Z,11.44
2018-10-18T06:36:21.779Z,11.44
2018-10-18T06:38:48.787Z,11.50
2018-10-18T06:41:15.751Z,11.63
2018-10-18T06:43:42.667Z,11.63
2018-10-18T06:46:11.301Z,11.63
2018-10-18T06:48:38.456Z,11.63
2018-10-18T06:51:05.672Z,11.69
2018-10-18T06:53:32.606Z,11.69
2018-10-18T06:56:00.040Z,11.75
2018-10-18T06:58:26.928Z,11.81
2018-10-18T07:00:53.879Z,11.88
2018-10-18T07:03:20.843Z,12.00
2018-10-18T07:05:47.811Z,12.13
2018-10-18T07:08:14.732Z,12.00
2018-10-18T07:10:41.677Z,12.13
2018-10-18T07:13:08.652Z,12.19
2018-10-18T07:15:35.593Z,12.25
2018-10-18T07:18:02.567Z,12.50
2018-10-18T07:20:29.445Z,12.56
2018-10-18T07:22:56.365Z,12.50
2018-10-18T07:25:23.369Z,12.69
2018-10-18T07:32:44.483Z,12.75
2018-10-18T07:35:12.631Z,12.81
2018-10-18T07:37:39.544Z,12.81
2018-10-18T07:40:08.287Z,12.81
2018-10-18T07:42:35.306Z,12.81
2018-10-18T07:45:02.263Z,13.00
2018-10-18T07:47:29.220Z,13.13
2018-10-18T07:49:56.176Z,13.13
2018-10-18T07:52:23.080Z,13.31
2018-10-18T07:54:50.088Z,13.13
2018-10-18T07:57:17.097Z,13.06
2018-10-18T07:59:44.014Z,12.94
2018-10-18T08:02:10.930Z,13.00
2018-10-18T08:04:37.843Z,13.19
2018-10-18T08:07:05.099Z,13.06
2018-10-18T08:09:32.033Z,12.94
2018-10-18T08:11:59.679Z,13.06
2018-10-18T08:14:26.613Z,13.19
2018-10-18T08:16:53.558Z,13.19
2018-10-18T08:19:20.490Z,13.19
2018-10-18T08:21:47.473Z,13.25
2018-10-18T08:24:14.452Z,13.31
2018-10-18T08:26:41.437Z,13.31
2018-10-18T08:29:08.476Z,13.38
2018-10-18T08:31:35.458Z,13.19
2018-10-18T08:34:02.328Z,13.56
2018-10-18T08:36:29.305Z,13.62
2018-10-18T08:38:56.252Z,13.69
2018-10-18T08:41:23.220Z,13.50
2018-10-18T08:43:50.830Z,13.44
2018-10-18T08:46:17.894Z,13.56
2018-10-18T08:48:44.807Z,13.62
2018-10-18T08:51:11.725Z,13.56
2018-10-18T08:53:39.626Z,13.69
2018-10-18T08:56:06.602Z,13.69
2018-10-18T08:58:33.693Z,13.75
2018-10-18T09:01:00.679Z,13.81
2018-10-18T09:03:27.633Z,13.75
2018-10-18T09:05:54.597Z,13.88
2018-10-18T09:08:21.574Z,13.94
2018-10-18T09:10:48.475Z,13.88
2018-10-18T09:13:15.530Z,14.00
2018-10-18T09:15:42.487Z,14.06
2018-10-18T09:18:09.431Z,14.13
2018-10-18T09:20:36.389Z,14.00
2018-10-18T09:23:03.415Z,14.13
2018-10-18T09:25:30.354Z,14.13
2018-10-18T09:27:57.404Z,14.19
2018-10-18T09:30:24.862Z,14.25
2018-10-18T09:32:51.688Z,14.31
2018-10-18T09:35:18.644Z,14.25
2018-10-18T09:37:45.550Z,14.19
2018-10-18T09:40:12.611Z,14.31
2018-10-18T09:42:39.829Z,14.31
2018-10-18T09:45:08.068Z,14.38
2018-10-18T09:47:34.998Z,14.44
2018-10-18T09:50:01.990Z,14.44
2018-10-18T09:52:28.950Z,14.44
2018-10-18T09:54:55.867Z,14.56
2018-10-18T09:57:22.799Z,14.56
2018-10-18T09:59:49.765Z,14.56
2018-10-18T10:02:22.531Z,14.63
2018-10-18T10:04:49.473Z,14.63
2018-10-18T10:07:17.397Z,14.69
2018-10-18T10:09:44.261Z,14.75
2018-10-18T10:12:11.169Z,14.75
2018-10-18T10:14:38.087Z,14.75
2018-10-18T10:17:05.419Z,14.87
2018-10-18T10:19:32.340Z,15.00
2018-10-18T10:21:59.416Z,14.94
2018-10-18T10:24:26.407Z,15.00
2018-10-18T10:26:53.428Z,15.06
2018-10-18T10:29:20.328Z,14.94
2018-10-18T10:31:47.516Z,15.13
2018-10-18T10:34:14.406Z,15.06
2018-10-18T10:36:41.381Z,15.19
2018-10-18T10:39:08.836Z,15.19
2018-10-18T10:41:36.261Z,15.31
2018-10-18T10:44:05.472Z,15.38
2018-10-18T10:46:33.075Z,15.38
2018-10-18T10:49:00.971Z,15.50
2018-10-18T10:51:27.908Z,15.50
2018-10-18T10:53:54.838Z,15.63
2018-10-18T10:56:21.840Z,15.63
2018-10-18T10:58:48.795Z,15.81
2018-10-18T11:01:18.879Z,15.94
2018-10-18T11:03:46.276Z,15.81
2018-10-18T11:06:13.643Z,15.81
2018-10-18T11:08:40.590Z,15.94
2018-10-18T11:11:07.926Z,15.94
2018-10-18T11:13:34.882Z,16.00
2018-10-18T11:16:02.689Z,16.00
2018-10-18T11:18:30.394Z,15.31
2018-10-18T11:20:57.425Z,15.31
2018-10-18T11:23:24.340Z,15.75
2018-10-18T11:25:51.399Z,15.75
2018-10-18T11:28:18.935Z,15.56
2018-10-18T11:30:46.663Z,15.38
2018-10-18T11:33:13.864Z,15.50
2018-10-18T11:35:41.142Z,15.44
2018-10-18T11:38:08.176Z,15.50
2018-10-18T11:40:35.419Z,15.63
2018-10-18T11:43:02.378Z,15.44
2018-10-18T11:45:29.300Z,15.31
2018-10-18T11:47:56.286Z,15.38
2018-10-18T11:50:23.228Z,15.44
2018-10-18T11:52:50.174Z,15.69
2018-10-18T11:55:17.154Z,15.56
2018-10-18T11:57:44.241Z,15.63
2018-10-18T12:00:15.844Z,14.94
2018-10-18T12:02:42.932Z,15.00
2018-10-18T12:05:10.026Z,14.81
2018-10-18T12:07:37.074Z,15.44
2018-10-18T12:10:04.373Z,15.13
2018-10-18T12:12:31.300Z,15.06
2018-10-18T12:14:58.224Z,15.00
2018-10-18T12:17:25.185Z,15.06
2018-10-18T12:19:52.152Z,15.13
2018-10-18T12:22:19.137Z,14.94
2018-10-18T12:24:46.126Z,15.25
2018-10-18T12:27:13.068Z,15.31
2018-10-18T12:29:40.004Z,15.38
2018-10-18T12:32:07.042Z,15.31
2018-10-18T12:34:33.894Z,15.19
2018-10-18T12:37:00.811Z,15.13
2018-10-18T12:39:27.786Z,15.13
2018-10-18T12:41:54.797Z,15.44
2018-10-18T12:44:21.689Z,15.50
2018-10-18T12:46:48.615Z,15.25
2018-10-18T12:49:15.580Z,15.13
2018-10-18T12:51:42.480Z,15.31
2018-10-18T12:54:09.405Z,15.19
2018-10-18T12:56:36.428Z,15.25
2018-10-18T12:59:03.395Z,15.13
2018-10-18T13:01:30.344Z,15.56
2018-10-18T13:03:57.274Z,15.31
2018-10-18T13:06:26.524Z,15.00
2018-10-18T13:08:53.686Z,15.00
2018-10-18T13:11:20.548Z,15.19
2018-10-18T13:13:47.486Z,15.25
2018-10-18T13:16:14.401Z,15.13
2018-10-18T13:18:41.339Z,15.06
2018-10-18T13:21:08.288Z,15.06
2018-10-18T13:23:35.215Z,15.38
2018-10-18T13:26:02.191Z,15.06
2018-10-18T13:28:29.061Z,15.00
2018-10-18T13:30:56.022Z,15.31
2018-10-18T13:33:22.932Z,15.00
2018-10-18T13:35:49.896Z,14.87
2018-10-18T13:38:16.945Z,15.13
2018-10-18T13:40:43.863Z,15.06
2018-10-18T13:43:10.755Z,15.06
2018-10-18T13:45:37.686Z,15.06
2018-10-18T13:48:04.753Z,14.94
2018-10-18T13:50:31.662Z,15.06
2018-10-18T13:52:58.620Z,14.94
2018-10-18T13:55:25.601Z,15.25
2018-10-18T13:57:52.536Z,14.94
2018-10-18T14:00:21.590Z,14.87
2018-10-18T14:02:49.131Z,14.81
2018-10-18T14:05:16.197Z,14.69
2018-10-18T14:07:43.224Z,15.19
2018-10-18T14:10:10.185Z,14.87
2018-10-18T14:12:37.135Z,14.87
2018-10-18T14:15:04.717Z,15.00
2018-10-18T14:17:31.781Z,14.87
2018-10-18T14:19:58.640Z,14.81
2018-10-18T14:22:25.584Z,14.81
2018-10-18T14:24:52.550Z,14.81
2018-10-18T14:27:19.456Z,15.13
2018-10-18T14:29:46.438Z,14.81
2018-10-18T14:32:13.445Z,14.94
2018-10-18T14:39:34.857Z,15.13
2018-10-18T14:42:01.852Z,14.87
2018-10-18T14:44:28.979Z,14.94
2018-10-18T14:46:55.850Z,14.94
2018-10-18T14:49:22.887Z,14.94
2018-10-18T14:51:49.827Z,15.00
2018-10-18T14:54:16.787Z,14.81
2018-10-18T14:56:43.755Z,15.00
2018-10-18T14:59:10.785Z,15.06
2018-10-18T15:01:37.795Z,15.00
2018-10-18T15:04:05.322Z,14.94
2018-10-18T15:06:32.305Z,15.00
2018-10-18T15:08:59.213Z,15.00
2018-10-18T15:11:26.649Z,15.19
2018-10-18T15:13:53.600Z,14.81
2018-10-18T15:16:20.524Z,15.19
2018-10-18T15:18:47.516Z,14.94
2018-10-18T15:21:14.498Z,15.00
2018-10-18T15:23:41.427Z,14.81
2018-10-18T15:26:08.426Z,14.87
2018-10-18T15:28:35.361Z,14.94
2018-10-18T15:31:02.269Z,14.69
2018-10-18T15:33:29.229Z,14.87
2018-10-18T15:35:56.185Z,15.19
2018-10-18T15:38:23.339Z,15.13
2018-10-18T15:40:50.167Z,14.94
2018-10-18T15:43:17.206Z,15.19
2018-10-18T15:45:44.147Z,15.25
2018-10-18T15:48:11.078Z,15.25
2018-10-18T15:50:38.037Z,15.06
2018-10-18T15:53:05.075Z,14.94
2018-10-18T15:55:32.042Z,15.44
2018-10-18T15:57:59.058Z,15.00
2018-10-18T16:00:26.093Z,14.81
2018-10-18T16:02:53.007Z,14.81
2018-10-18T16:05:20.000Z,15.06
2018-10-18T16:07:46.994Z,15.25
2018-10-18T16:10:14.000Z,15.00
2018-10-18T16:12:40.966Z,14.87
2018-10-18T16:15:08.899Z,14.87
2018-10-18T16:17:35.932Z,15.06
2018-10-18T16:20:02.998Z,15.19
2018-10-18T16:22:29.924Z,14.94
2018-10-18T16:24:56.904Z,15.38
2018-10-18T16:27:23.885Z,15.13
2018-10-18T16:29:50.829Z,15.19
2018-10-18T16:32:17.927Z,15.06
2018-10-18T16:34:44.819Z,15.06
2018-10-18T16:37:11.747Z,15.13
2018-10-18T16:39:38.685Z,15.38
2018-10-18T16:42:05.769Z,14.94
2018-10-18T16:44:32.697Z,15.19
2018-10-18T16:46:59.600Z,15.19
2018-10-18T16:49:26.515Z,15.13
2018-10-18T16:51:54.200Z,15.00
2018-10-18T16:54:21.231Z,15.00
2018-10-18T16:56:48.173Z,14.94
2018-10-18T16:59:15.128Z,14.81
2018-10-18T17:01:42.101Z,14.75
2018-10-18T17:04:09.298Z,14.63
2018-10-18T17:06:36.304Z,14.75
2018-10-18T17:09:05.159Z,14.63
2018-10-18T17:11:32.087Z,14.81
2018-10-18T17:13:59.065Z,14.69
2018-10-18T17:16:26.137Z,14.44
2018-10-18T17:18:53.064Z,14.69
2018-10-18T17:21:20.090Z,14.63
2018-10-18T17:23:46.970Z,14.31
2018-10-18T17:26:13.984Z,14.44
2018-10-18T17:28:40.917Z,14.44
2018-10-18T17:31:07.887Z,14.31
2018-10-18T17:33:34.867Z,14.19
2018-10-18T17:36:01.932Z,14.31
2018-10-18T17:38:28.872Z,14.38
2018-10-18T17:40:55.807Z,14.19
2018-10-18T17:43:22.792Z,14.25
2018-10-18T17:45:49.733Z,14.06
2018-10-18T17:48:16.824Z,14.19
2018-10-18T17:50:43.730Z,14.31
2018-10-18T17:53:10.776Z,14.31
2018-10-18T17:55:37.668Z,14.38
2018-10-18T17:58:04.690Z,14.25
2018-10-18T18:00:31.768Z,14.19
2018-10-18T18:02:58.689Z,14.25
2018-10-18T18:05:25.702Z,14.19
2018-10-18T18:07:52.755Z,14.19
2018-10-18T18:10:19.799Z,14.25
2018-10-18T18:12:46.941Z,14.06
2018-10-18T18:15:13.969Z,14.31
2018-10-18T18:17:41.060Z,14.25
2018-10-18T18:20:09.405Z,14.25
2018-10-18T18:22:36.371Z,14.25
2018-10-18T18:25:04.559Z,14.13
2018-10-18T18:27:31.582Z,14.19
2018-10-18T18:29:58.669Z,13.94
2018-10-18T18:32:25.602Z,14.25
2018-10-18T18:34:52.807Z,14.31
2018-10-18T18:37:19.758Z,14.31
2018-10-18T18:39:46.990Z,14.00
2018-10-18T18:42:14.114Z,14.13
2018-10-18T18:44:41.073Z,14.06
2018-10-18T18:47:08.122Z,14.25
2018-10-18T18:49:35.128Z,14.13
2018-10-18T18:52:02.259Z,14.25
2018-10-18T18:54:29.238Z,14.19
2018-10-18T18:56:56.274Z,14.13
2018-10-18T18:59:23.250Z,13.94
2018-10-18T19:01:50.472Z,14.06
2018-10-18T19:04:17.561Z,14.06
2018-10-18T19:06:44.569Z,14.06
2018-10-18T19:09:11.673Z,14.06
2018-10-18T19:11:38.955Z,14.06
2018-10-18T19:14:06.534Z,13.94
2018-10-18T19:16:33.494Z,13.88
2018-10-18T19:19:00.521Z,13.81
2018-10-18T19:21:27.594Z,13.81
2018-10-18T19:23:54.606Z,13.81
2018-10-18T19:26:21.664Z,13.62
2018-10-18T19:28:49.001Z,13.88
2018-10-18T19:31:16.038Z,13.81
2018-10-18T19:33:42.958Z,13.69
2018-10-18T19:36:10.003Z,13.88
2018-10-18T19:38:37.305Z,13.88
2018-10-18T19:41:04.223Z,13.88
2018-10-18T19:43:31.220Z,13.75
2018-10-18T19:45:58.419Z,13.75
2018-10-18T19:48:25.486Z,13.69
2018-10-18T19:50:52.524Z,13.62
2018-10-18T19:53:19.604Z,13.81
2018-10-18T19:55:46.912Z,13.62
2018-10-18T19:58:13.965Z,13.50
2018-10-18T20:00:41.056Z,13.75
2018-10-18T20:03:08.059Z,13.56
2018-10-18T20:05:35.278Z,13.56
2018-10-18T20:08:02.372Z,13.44
2018-10-18T20:10:30.074Z,13.50
2018-10-18T20:12:57.220Z,13.62
2018-10-18T20:15:24.256Z,13.50
2018-10-18T20:17:51.536Z,13.38
2018-10-18T20:20:18.761Z,13.69
2018-10-18T20:22:45.748Z,13.56
2018-10-18T20:25:12.843Z,13.75
2018-10-18T20:27:39.936Z,13.81
2018-10-18T20:30:09.698Z,13.62
2018-10-18T20:32:36.692Z,13.75
2018-10-18T20:35:04.442Z,13.62
2018-10-18T20:37:31.697Z,13.56
2018-10-18T20:39:58.731Z,13.50
2018-10-18T20:42:25.743Z,13.56
2018-10-18T20:44:52.739Z,13.75
2018-10-18T20:47:19.886Z,13.81
2018-10-18T20:49:46.847Z,13.69
2018-10-18T20:52:13.978Z,13.62
2018-10-18T20:54:40.886Z,13.62
2018-10-18T20:57:08.542Z,13.44
2018-10-18T20:59:36.293Z,13.56
2018-10-18T21:02:03.281Z,13.56
2018-10-18T21:04:30.214Z,13.69
2018-10-18T21:06:57.179Z,13.69
2018-10-18T21:09:24.236Z,13.62
2018-10-18T21:11:51.178Z,13.44
2018-10-18T21:14:19.678Z,13.56
2018-10-18T21:16:46.728Z,13.62
2018-10-18T21:19:13.935Z,13.69
2018-10-18T21:21:41.061Z,13.75
2018-10-18T21:24:07.951Z,13.56
2018-10-18T21:26:34.869Z,13.56
2018-10-18T21:29:02.488Z,13.44
2018-10-18T21:31:29.456Z,13.62
2018-10-18T21:33:56.378Z,13.56
2018-10-18T21:36:23.469Z,13.56
2018-10-18T21:38:52.961Z,13.38
2018-10-18T21:41:19.902Z,13.38
2018-10-18T21:43:46.829Z,13.38
2018-10-18T21:46:14.809Z,13.31
2018-10-18T21:48:42.707Z,13.31
2018-10-18T21:51:09.819Z,13.31
2018-10-18T21:53:36.699Z,13.38
2018-10-18T21:56:04.082Z,13.19
2018-10-18T21:58:31.028Z,13.25
2018-10-18T22:00:57.981Z,13.06
2018-10-18T22:03:24.944Z,13.44
2018-10-18T22:05:51.865Z,13.19
2018-10-18T22:08:18.846Z,13.31
2018-10-18T22:10:45.799Z,13.19
2018-10-18T22:13:14.926Z,13.06
2018-10-18T22:15:42.000Z,13.19
2018-10-18T22:18:09.279Z,12.88
2018-10-18T22:20:36.240Z,13.13
2018-10-18T22:23:03.301Z,13.00
2018-10-18T22:25:30.169Z,12.88
2018-10-18T22:27:57.203Z,13.13
2018-10-18T22:30:24.110Z,13.00
2018-10-18T22:32:51.175Z,13.19
2018-10-18T22:35:18.094Z,12.94
2018-10-18T22:37:45.011Z,12.81
2018-10-18T22:40:11.988Z,12.63
2018-10-18T22:42:38.956Z,12.69
2018-10-18T22:45:06.347Z,12.75
2018-10-18T22:47:33.300Z,12.56
2018-10-18T22:50:00.234Z,12.69
2018-10-18T22:52:27.136Z,12.37
2018-10-18T22:54:54.092Z,12.81
2018-10-18T22:57:21.112Z,12.69
2018-10-18T22:59:48.236Z,12.50
2018-10-18T23:02:15.274Z,12.56
2018-10-18T23:04:42.230Z,12.44
2018-10-18T23:07:09.214Z,12.13
2018-10-18T23:09:36.157Z,12.37
2018-10-18T23:12:03.141Z,12.44
2018-10-18T23:14:30.120Z,12.50
2018-10-18T23:16:57.096Z,12.44
2018-10-18T23:19:24.059Z,12.44
2018-10-18T23:21:50.993Z,12.37
2018-10-18T23:24:18.012Z,12.25
2018-10-18T23:26:44.900Z,12.13
2018-10-18T23:29:11.856Z,12.31
2018-10-18T23:31:38.777Z,12.19
2018-10-18T23:34:05.689Z,12.13
2018-10-18T23:36:32.613Z,12.06
2018-10-18T23:38:59.519Z,11.88
2018-10-18T23:41:26.511Z,11.94
2018-10-18T23:43:53.444Z,12.06
2018-10-18T23:46:20.440Z,11.94
2018-10-18T23:48:47.370Z,11.94
2018-10-18T23:51:14.381Z,11.75
2018-10-18T23:53:41.261Z,12.06
2018-10-18T23:56:08.263Z,11.81
2018-10-18T23:58:35.204Z,11.75
